Time;durP1;ratioP1;P1;durP2;ratioP2;P2;SDS_P1;SDS_P2;PMS_P1;PMS_P2;Temp;Humidity;BMP_temperature;BMP_pressure;BME280_temperature;BME280_humidity;BME280_pressure;Samples;Min_cycle;Max_cycle;Signal;HPM_P1;HPM_P2
2021/12/07 00:00:18;;;;;;;7.70;4.23;;;;;;;4.46;98.03;95603.56;5070922;28;20788;-33
2021/12/07 00:02:45;;;;;;;4.87;4.13;;;;;;;4.50;97.72;95609.16;5071265;28;20428;-33
2021/12/07 00:05:13;;;;;;;5.70;3.80;;;;;;;4.46;97.10;95603.56;5070798;28;20809;-33
2021/12/07 00:07:42;;;;;;;5.50;4.07;;;;;;;4.36;97.93;95584.13;5071125;28;20450;-32
2021/12/07 00:10:11;;;;;;;5.60;3.87;;;;;;;4.54;97.42;95604.25;5070702;28;20448;-34
2021/12/07 00:12:41;;;;;;;7.67;4.20;;;;;;;4.57;97.45;95606.44;5070712;28;20451;-32
2021/12/07 00:15:12;;;;;;;4.00;3.60;;;;;;;4.56;96.92;95603.00;5070976;27;20476;-32
2021/12/07 00:17:41;;;;;;;5.87;3.60;;;;;;;4.56;96.45;95597.75;5071003;28;20420;-32
2021/12/07 00:20:11;;;;;;;8.70;4.77;;;;;;;4.46;97.06;95608.81;5070594;28;20443;-32
2021/12/07 00:22:39;;;;;;;7.27;5.27;;;;;;;4.49;97.38;95597.03;5070878;28;20428;-32
2021/12/07 00:25:07;;;;;;;7.90;5.00;;;;;;;4.49;98.13;95605.72;5070516;28;20990;-33
2021/12/07 00:27:35;;;;;;;7.30;3.30;;;;;;;4.51;97.62;95601.03;5070774;28;20444;-32
2021/12/07 00:30:03;;;;;;;6.17;2.97;;;;;;;4.48;97.49;95590.19;5070379;28;20927;-32
2021/12/07 00:32:32;;;;;;;6.30;3.33;;;;;;;4.50;97.72;95598.66;5070916;27;20448;-32
2021/12/07 00:35:25;;;;;;;2.27;1.97;;;;;;;4.49;97.64;95597.03;5070696;28;20578;-32
2021/12/07 00:37:57;;;;;;;5.23;3.90;;;;;;;4.48;97.50;95579.69;5070429;28;20433;-33
2021/12/07 00:40:26;;;;;;;4.53;3.13;;;;;;;4.49;97.54;95597.03;5070475;27;21008;-33
2021/12/07 00:42:53;;;;;;;4.57;4.10;;;;;;;4.47;97.22;95586.78;5070660;27;20444;-33
2021/12/07 00:45:22;;;;;;;4.87;3.10;;;;;;;4.40;97.53;95583.44;5070252;28;20452;-33
2021/12/07 00:47:51;;;;;;;5.90;3.27;;;;;;;4.22;98.17;95565.13;5070143;28;20939;-32
2021/12/07 00:50:21;;;;;;;3.00;2.70;;;;;;;4.36;97.96;95582.28;5070105;28;20488;-32
2021/12/07 00:52:50;;;;;;;4.33;2.97;;;;;;;4.37;98.52;95599.66;5070211;28;20435;-32
2021/12/07 00:55:22;;;;;;;4.20;2.43;;;;;;;4.32;98.53;95596.91;5069990;28;20487;-33
2021/12/07 00:57:52;;;;;;;3.30;2.70;;;;;;;4.31;98.49;95579.53;5070423;28;20420;-33
2021/12/07 01:00:21;;;;;;;2.07;1.87;;;;;;;4.34;98.75;95563.31;5070407;28;20825;-33
2021/12/07 01:02:48;;;;;;;2.43;2.20;;;;;;;4.36;98.59;95566.50;5070028;28;20828;-33
2021/12/07 01:05:20;;;;;;;3.40;2.20;;;;;;;4.16;99.11;95535.31;5070108;27;20981;-33
2021/12/07 01:08:10;;;;;;;5.13;3.13;;;;;;;4.38;98.43;95563.66;5070038;28;20443;-33
2021/12/07 01:24:41;;;;;;;2.57;2.37;;;;;;;4.19;98.37;95539.31;5070159;28;20412;-32
2021/12/07 01:27:11;;;;;;;2.63;2.43;;;;;;;4.31;98.75;95561.16;5069723;28;20899;-33
2021/12/07 01:29:39;;;;;;;3.57;1.73;;;;;;;4.10;98.31;95509.94;5069961;28;20462;-33
2021/12/07 01:32:25;;;;;;;1.57;1.47;;;;;;;4.27;98.16;95515.31;5069938;28;20452;-33
2021/12/07 01:35:29;;;;;;;2.20;2.00;;;;;;;4.29;98.20;95513.28;5069636;28;20472;-32
2021/12/07 01:38:20;;;;;;;1.70;1.60;;;;;;;4.26;98.35;95509.28;5070116;28;20451;-33
2021/12/07 01:41:03;;;;;;;2.63;2.00;;;;;;;4.25;98.45;95530.50;5069601;27;20468;-33
2021/12/07 01:43:56;;;;;;;3.37;2.00;;;;;;;4.18;98.45;95535.09;5069831;28;20433;-33
2021/12/07 01:46:44;;;;;;;6.40;2.67;;;;;;;4.19;99.16;95524.34;5070385;28;20458;-33
2021/12/07 01:52:28;;;;;;;2.30;2.10;;;;;;;4.27;99.27;95533.72;5072980;28;20458;-33
2021/12/07 02:00:40;;;;;;;3.73;2.83;;;;;;;4.37;98.54;95512.94;5048206;28;20435;-33
2021/12/07 02:03:07;;;;;;;3.03;2.30;;;;;;;4.19;98.61;95476.25;5073108;28;20435;-33
2021/12/07 02:05:35;;;;;;;2.13;1.93;;;;;;;4.37;98.29;95504.25;5073093;28;20452;-32
2021/12/07 02:08:02;;;;;;;2.73;2.13;;;;;;;4.22;98.42;95475.81;5072714;28;20443;-32
2021/12/07 02:10:31;;;;;;;2.07;1.73;;;;;;;4.30;98.28;95496.47;5072717;28;20443;-32
2021/12/07 02:13:04;;;;;;;2.27;2.07;;;;;;;4.29;98.27;95487.78;5072642;28;20480;-32
2021/12/07 02:15:33;;;;;;;1.87;1.67;;;;;;;4.33;98.70;95485.53;5072561;28;20476;-33
2021/12/07 02:18:01;;;;;;;2.10;1.90;;;;;;;4.28;98.35;95501.16;5072551;28;20440;-32
2021/12/07 02:20:32;;;;;;;3.43;3.13;;;;;;;4.24;98.74;95503.44;5072805;28;20444;-32
2021/12/07 02:23:01;;;;;;;2.87;2.00;;;;;;;4.20;98.99;95504.94;5072641;27;20443;-32
2021/12/07 02:25:28;;;;;;;2.43;1.80;;;;;;;4.24;99.23;95484.25;5072705;28;20478;-33
2021/12/07 02:27:56;;;;;;;3.23;2.30;;;;;;;4.23;99.08;95503.66;5072349;28;20444;-33
2021/12/07 02:30:25;;;;;;;2.57;2.20;;;;;;;4.28;99.47;95509.03;5072651;28;20910;-33
2021/12/07 02:32:54;;;;;;;2.27;2.03;;;;;;;4.30;98.67;95504.34;5072710;28;20452;-32
2021/12/07 02:35:25;;;;;;;2.60;2.07;;;;;;;4.27;99.13;95487.22;5072252;27;20488;-32
2021/12/07 02:37:53;;;;;;;1.80;1.70;;;;;;;4.26;99.42;95476.97;5072294;28;20429;-33
2021/12/07 02:40:23;;;;;;;2.27;1.90;;;;;;;4.23;99.71;95477.41;5072233;28;20440;-32
2021/12/07 02:42:50;;;;;;;2.57;1.97;;;;;;;4.24;99.02;95479.00;5072049;28;20436;-33
2021/12/07 02:45:19;;;;;;;1.83;1.70;;;;;;;4.22;99.22;95467.94;5072374;28;20443;-33
2021/12/07 02:47:46;;;;;;;4.30;1.67;;;;;;;4.21;99.54;95466.31;5072398;28;20446;-32
2021/12/07 02:50:16;;;;;;;3.30;1.90;;;;;;;4.23;100.00;95466.88;5071827;28;20447;-32
2021/12/07 02:52:43;;;;;;;2.03;1.80;;;;;;;4.22;99.89;95452.16;5072337;28;20429;-31
2021/12/07 02:55:11;;;;;;;2.13;2.03;;;;;;;4.23;100.00;95438.78;5071841;28;20494;-32
2021/12/07 02:57:42;;;;;;;3.57;2.50;;;;;;;4.23;100.00;95441.41;5072014;27;20439;-32
2021/12/07 03:00:16;;;;;;;2.47;2.20;;;;;;;4.25;100.00;95438.56;5072231;28;20432;-32
2021/12/07 03:02:48;;;;;;;2.33;1.93;;;;;;;4.29;100.00;95456.25;5072264;27;20919;-32
2021/12/07 03:05:26;;;;;;;3.93;2.90;;;;;;;4.36;99.34;95464.03;5072170;27;20504;-32
2021/12/07 03:08:26;;;;;;;9.50;5.23;;;;;;;4.40;99.44;95459.91;5072145;27;20435;-33
2021/12/07 03:27:22;;;;;;;3.37;2.30;;;;;;;4.29;99.49;95469.41;5069551;28;20519;-32
2021/12/07 03:29:51;;;;;;;2.60;2.07;;;;;;;4.32;99.57;95457.63;5069409;28;20801;-32
2021/12/07 03:32:18;;;;;;;1.80;1.70;;;;;;;4.37;99.51;95451.72;5069264;28;20443;-33
2021/12/07 03:34:45;;;;;;;3.10;2.67;;;;;;;4.38;99.43;95448.84;5069190;28;20525;-32
2021/12/07 03:37:13;;;;;;;2.30;2.10;;;;;;;4.39;99.56;95433.84;5069312;28;20439;-32
2021/12/07 03:39:40;;;;;;;2.07;1.97;;;;;;;4.35;99.27;95446.66;5069275;28;20778;-33
2021/12/07 03:42:07;;;;;;;3.20;2.00;;;;;;;4.33;99.11;95448.72;5069199;28;20934;-33
2021/12/07 03:44:35;;;;;;;7.27;3.40;;;;;;;4.35;99.30;95449.31;5069095;28;20444;-32
2021/12/07 03:47:04;;;;;;;3.90;2.80;;;;;;;4.39;98.76;95458.31;5069452;28;20806;-32
2021/12/07 03:49:31;;;;;;;2.83;2.63;;;;;;;4.39;98.68;95449.63;5069045;28;20474;-32
2021/12/07 03:51:58;;;;;;;1.70;1.60;;;;;;;4.38;98.59;95454.09;5035274;28;20482;-32
2021/12/07 03:54:26;;;;;;;2.00;1.90;;;;;;;4.34;99.00;95473.97;5031094;28;20481;-32
2021/12/07 03:56:53;;;;;;;4.30;2.33;;;;;;;4.33;99.01;95456.63;5031375;28;20446;-33
2021/12/07 03:59:21;;;;;;;1.67;1.47;;;;;;;4.32;99.04;95462.88;5031074;28;20441;-32
2021/12/07 04:01:51;;;;;;;1.70;1.40;;;;;;;4.30;98.56;95471.00;5031327;28;20468;-32
2021/12/07 04:04:20;;;;;;;3.83;2.40;;;;;;;4.28;98.34;95459.94;5030773;28;20446;-32
2021/12/07 04:06:47;;;;;;;1.73;1.60;;;;;;;4.26;99.06;95461.19;5031394;28;20442;-32
2021/12/07 04:09:15;;;;;;;1.83;1.67;;;;;;;4.23;99.16;95451.13;5030974;28;20438;-35
2021/12/07 04:11:42;;;;;;;3.13;2.27;;;;;;;4.17;99.32;95446.78;5030684;28;20513;-32
2021/12/07 04:14:09;;;;;;;3.43;2.87;;;;;;;4.18;99.19;95443.13;5031017;28;20445;-33
2021/12/07 04:16:37;;;;;;;6.53;4.30;;;;;;;4.06;99.82;95430.78;5031143;28;20445;-32
2021/12/07 04:19:04;;;;;;;2.37;1.33;;;;;;;4.14;99.90;95442.00;5030791;28;20494;-32
2021/12/07 04:21:33;;;;;;;4.03;1.93;;;;;;;4.08;100.00;95449.75;5030750;28;20446;-32
2021/12/07 04:24:00;;;;;;;1.50;1.40;;;;;;;4.07;99.97;95453.41;5031553;28;20442;-33
2021/12/07 04:26:28;;;;;;;6.83;3.60;;;;;;;4.09;100.00;95456.59;5030591;28;20933;-33
2021/12/07 04:28:55;;;;;;;1.57;1.47;;;;;;;4.04;100.00;95453.88;5030671;28;20446;-32
2021/12/07 04:31:22;;;;;;;1.87;1.30;;;;;;;4.04;100.00;95453.88;5030943;28;20929;-33
2021/12/07 04:33:50;;;;;;;4.83;2.53;;;;;;;4.06;100.00;95441.28;5030596;28;20883;-32
2021/12/07 04:36:17;;;;;;;2.13;1.77;;;;;;;4.06;100.00;95459.66;5030403;28;20496;-33
2021/12/07 04:38:46;;;;;;;2.40;1.70;;;;;;;4.09;100.00;95461.06;5030528;28;20449;-32
2021/12/07 04:41:13;;;;;;;1.70;1.60;;;;;;;4.12;100.00;95462.44;5030809;28;20824;-32
2021/12/07 04:43:42;;;;;;;1.63;1.53;;;;;;;4.13;100.00;95461.41;5030442;28;20453;-32
2021/12/07 04:46:16;;;;;;;1.87;1.53;;;;;;;4.05;100.00;95465.97;5030395;28;20445;-32
2021/12/07 04:49:20;;;;;;;5.63;1.90;;;;;;;4.06;100.00;95470.19;5030412;28;20531;-32
2021/12/07 04:59:58;;;;;;;2.47;1.90;;;;;;;3.71;100.00;95391.38;5068280;28;20533;-33
2021/12/07 05:02:25;;;;;;;4.80;3.40;;;;;;;4.07;100.00;95447.38;5067908;28;20444;-31
2021/12/07 05:04:52;;;;;;;9.17;4.30;;;;;;;4.10;100.00;95458.19;5067990;28;20443;-33
2021/12/07 05:07:26;;;;;;;5.03;4.63;;;;;;;4.12;100.00;95452.72;5067947;28;20452;-33
2021/12/07 05:13:09;;;;;;;2.07;1.50;;;;;;;4.09;100.00;95458.44;5052985;28;20433;-34
2021/12/07 05:18:37;;;;;;;3.37;3.10;;;;;;;4.19;100.00;95442.88;5050204;28;20791;-32
2021/12/07 05:24:01;;;;;;;2.77;2.20;;;;;;;4.27;100.00;95450.44;5049733;28;20911;-32
2021/12/07 05:37:55;;;;;;;2.27;1.70;;;;;;;4.23;100.00;95467.69;5041645;28;20919;-32
2021/12/07 05:40:24;;;;;;;3.93;2.90;;;;;;;4.25;100.00;95475.34;5051576;28;20493;-31
2021/12/07 05:42:54;;;;;;;2.73;2.53;;;;;;;4.28;100.00;95459.94;5050827;28;20445;-31
2021/12/07 05:45:32;;;;;;;3.60;3.33;;;;;;;4.29;100.00;95466.78;5051275;28;20441;-31
2021/12/07 05:48:01;;;;;;;3.63;2.57;;;;;;;4.30;100.00;95475.44;5051044;28;20473;-31
2021/12/07 05:50:31;;;;;;;2.07;1.87;;;;;;;4.34;100.00;95460.81;5050722;28;20480;-31
2021/12/07 05:52:59;;;;;;;2.67;2.47;;;;;;;4.31;100.00;95448.94;5050886;28;20444;-31
2021/12/07 05:55:27;;;;;;;3.97;3.47;;;;;;;4.14;100.00;95452.50;5050824;28;20845;-31
2021/12/07 05:57:57;;;;;;;3.40;2.80;;;;;;;4.29;100.00;95458.09;5050710;28;20449;-31
2021/12/07 06:00:28;;;;;;;9.93;5.23;;;;;;;4.31;100.00;95463.94;5050758;28;20928;-31
2021/12/07 06:02:58;;;;;;;10.97;6.50;;;;;;;4.31;100.00;95456.84;5050563;28;20995;-30
2021/12/07 06:05:27;;;;;;;2.73;2.53;;;;;;;4.33;100.00;95450.56;5050691;28;20454;-31
2021/12/07 06:07:55;;;;;;;3.43;3.10;;;;;;;4.07;100.00;95406.13;5050456;28;20441;-31
2021/12/07 06:10:23;;;;;;;6.80;4.30;;;;;;;4.25;100.00;95433.31;5050536;28;20452;-31
2021/12/07 06:12:50;;;;;;;6.20;4.37;;;;;;;4.27;100.00;95418.13;5050682;28;20944;-30
2021/12/07 06:15:22;;;;;;;5.90;3.77;;;;;;;4.27;100.00;95404.97;5050359;28;20484;-32
2021/12/07 06:17:50;;;;;;;8.30;5.63;;;;;;;4.30;100.00;95399.25;5050743;27;20904;-31
2021/12/07 06:20:17;;;;;;;4.30;3.10;;;;;;;4.16;100.00;95390.81;5050521;28;20456;-32
2021/12/07 06:22:45;;;;;;;3.20;2.00;;;;;;;4.18;100.00;95443.13;5050599;28;20480;-33
2021/12/07 06:25:12;;;;;;;3.57;2.83;;;;;;;4.03;100.00;95461.97;5050379;28;20451;-32
2021/12/07 06:27:40;;;;;;;6.30;5.10;;;;;;;4.07;100.00;95460.50;5050337;28;20537;-31
2021/12/07 06:30:11;;;;;;;12.87;7.60;;;;;;;3.99;100.00;95448.50;5050585;28;20796;-31
2021/12/07 06:32:40;;;;;;;24.90;16.60;;;;;;;4.14;100.00;95457.75;5050341;28;20440;-32
2021/12/07 06:35:08;;;;;;;21.60;12.80;;;;;;;4.16;100.00;95437.31;5049643;28;20516;-32
2021/12/07 06:37:36;;;;;;;27.37;15.67;;;;;;;4.16;100.00;95439.94;5050125;28;20437;-32
2021/12/07 06:40:05;;;;;;;14.60;8.33;;;;;;;4.17;100.00;95463.34;5050203;28;20449;-31
2021/12/07 06:42:32;;;;;;;8.10;4.73;;;;;;;4.17;100.00;95462.53;5050421;28;20448;-32
2021/12/07 06:44:59;;;;;;;5.93;3.80;;;;;;;4.18;100.00;95458.91;5050034;28;20445;-32
2021/12/07 06:47:26;;;;;;;7.97;6.47;;;;;;;4.17;100.00;95452.03;5049978;28;20476;-31
2021/12/07 06:49:55;;;;;;;12.93;8.17;;;;;;;4.19;100.00;95460.47;5050123;28;20440;-32
2021/12/07 06:52:22;;;;;;;5.33;4.47;;;;;;;4.20;100.00;95462.09;5049972;28;20447;-32
2021/12/07 06:54:50;;;;;;;2.30;2.10;;;;;;;4.23;100.00;95453.75;5049659;28;20950;-32
2021/12/07 06:57:17;;;;;;;2.40;2.20;;;;;;;4.23;100.00;95445.88;5050128;28;20820;-32
2021/12/07 06:59:46;;;;;;;11.53;6.17;;;;;;;4.23;100.00;95456.38;5049855;28;20990;-32
2021/12/07 07:02:13;;;;;;;16.80;10.60;;;;;;;4.22;100.00;95449.53;5049508;28;20497;-32
2021/12/07 07:04:40;;;;;;;13.07;8.10;;;;;;;4.24;100.00;95450.13;5050107;28;20447;-33
2021/12/07 07:07:09;;;;;;;6.93;5.07;;;;;;;4.25;100.00;95446.44;5049519;28;20795;-31
2021/12/07 07:09:36;;;;;;;5.80;5.07;;;;;;;4.26;100.00;95448.06;5050045;28;20780;-33
2021/12/07 07:12:04;;;;;;;9.87;8.80;;;;;;;4.28;100.00;95445.97;5049784;28;20956;-32
2021/12/07 07:14:32;;;;;;;5.90;3.63;;;;;;;4.32;100.00;95439.22;5049560;28;20444;-31
2021/12/07 07:16:59;;;;;;;8.27;5.43;;;;;;;4.21;100.00;95416.41;5049794;28;20500;-32
2021/12/07 07:19:26;;;;;;;9.00;7.33;;;;;;;4.36;100.00;95429.84;5049646;28;20981;-32
2021/12/07 07:21:53;;;;;;;10.63;7.80;;;;;;;4.31;100.00;95406.13;5049781;28;20441;-32
2021/12/07 07:24:22;;;;;;;18.27;9.87;;;;;;;4.42;100.00;95417.63;5049805;28;20839;-32
2021/12/07 07:26:49;;;;;;;133.13;50.40;;;;;;;4.47;100.00;95418.56;5049507;28;20452;-32
2021/12/07 07:29:17;;;;;;;115.30;43.47;;;;;;;4.50;100.00;95417.28;5049214;28;20948;-31
2021/12/07 07:31:44;;;;;;;67.43;25.17;;;;;;;4.53;100.00;95418.66;5049393;28;20931;-31
2021/12/07 07:34:11;;;;;;;23.63;12.70;;;;;;;4.55;100.00;95421.84;5049095;28;20451;-32
2021/12/07 07:36:38;;;;;;;7.43;4.50;;;;;;;4.55;100.00;95421.84;5049240;28;20522;-31
2021/12/07 07:39:06;;;;;;;9.50;5.27;;;;;;;4.49;100.00;95402.53;5049278;28;20448;-32
2021/12/07 07:41:35;;;;;;;3.90;2.40;;;;;;;4.49;100.00;95386.75;5049003;27;20807;-32
2021/12/07 07:44:02;;;;;;;6.40;4.10;;;;;;;4.47;100.00;95401.97;5049231;28;20437;-32
2021/12/07 07:46:29;;;;;;;25.73;18.23;;;;;;;4.51;100.00;95390.75;5048171;28;20449;-32
2021/12/07 07:48:57;;;;;;;6.63;4.00;;;;;;;4.54;100.00;95388.69;5049510;28;20441;-32
2021/12/07 07:51:24;;;;;;;8.17;6.40;;;;;;;4.56;100.00;95386.63;5048975;28;20506;-33
2021/12/07 07:53:54;;;;;;;49.07;17.20;;;;;;;4.59;100.00;95391.44;5049292;28;20449;-32
2021/12/07 07:56:21;;;;;;;46.57;21.90;;;;;;;4.59;100.00;95386.19;5050373;28;20902;-32
2021/12/07 07:58:50;;;;;;;35.93;15.67;;;;;;;4.63;100.00;95377.59;5051279;28;20448;-30
2021/12/07 08:01:17;;;;;;;23.40;12.30;;;;;;;4.65;100.00;95393.16;5051308;28;20939;-30
2021/12/07 08:03:44;;;;;;;22.03;12.47;;;;;;;4.69;100.00;95407.44;5050924;28;20952;-32
2021/12/07 08:06:12;;;;;;;13.47;8.10;;;;;;;4.70;100.00;95398.50;5050789;28;20445;-30
2021/12/07 08:08:39;;;;;;;35.57;9.17;;;;;;;4.70;100.00;95411.63;5051137;28;20528;-31
2021/12/07 08:11:07;;;;;;;19.93;10.90;;;;;;;4.68;100.00;95416.34;5050728;28;20455;-31
2021/12/07 08:13:34;;;;;;;4.80;2.87;;;;;;;4.67;100.00;95409.50;5050784;28;20445;-31
2021/12/07 08:16:03;;;;;;;23.47;9.30;;;;;;;4.68;100.00;95411.06;5050858;28;20516;-31
2021/12/07 08:18:30;;;;;;;21.77;9.63;;;;;;;4.71;100.00;95419.31;5051015;28;20802;-31
2021/12/07 08:20:58;;;;;;;16.40;7.20;;;;;;;4.75;100.00;95410.94;5050615;28;20896;-31
2021/12/07 08:23:25;;;;;;;5.50;4.07;;;;;;;4.74;100.00;95415.41;5050909;28;20485;-31
2021/12/07 08:25:52;;;;;;;11.70;6.77;;;;;;;4.78;100.00;95419.16;5050611;28;20457;-32
2021/12/07 08:28:20;;;;;;;12.13;9.40;;;;;;;4.81;100.00;95418.69;5048480;28;20452;-31
2021/12/07 08:30:51;;;;;;;11.23;6.13;;;;;;;4.80;100.00;95414.47;5048820;28;20505;-32
2021/12/07 08:33:20;;;;;;;9.93;5.60;;;;;;;4.78;100.00;95421.81;5048828;28;20452;-33
2021/12/07 08:35:47;;;;;;;38.90;14.20;;;;;;;4.71;100.00;95427.19;5048460;28;20484;-32
2021/12/07 08:38:15;;;;;;;22.10;10.17;;;;;;;4.76;100.00;95429.13;5048424;28;20441;-32
2021/12/07 08:40:43;;;;;;;43.27;12.87;;;;;;;4.73;100.00;95442.72;5048019;28;20536;-32
2021/12/07 08:43:12;;;;;;;15.67;7.63;;;;;;;4.69;100.00;95424.00;5048293;28;21042;-33
2021/12/07 08:45:41;;;;;;;10.30;6.50;;;;;;;4.67;100.00;95435.78;5048543;28;20445;-31
2021/12/07 08:48:08;;;;;;;93.17;25.40;;;;;;;4.68;100.00;95434.75;5048210;28;20451;-32
2021/12/07 08:50:37;;;;;;;39.50;19.37;;;;;;;4.69;100.00;95433.72;5048284;28;20477;-32
2021/12/07 08:53:11;;;;;;;66.87;26.17;;;;;;;4.66;100.00;95434.97;5048553;28;20444;-30
2021/12/07 09:01:09;;;;;;;13.67;10.53;;;;;;;4.78;100.00;95406.03;5051856;28;21068;-33
2021/12/07 09:03:36;;;;;;;24.50;11.87;;;;;;;4.76;100.00;95410.72;5051794;28;20464;-32
2021/12/07 09:06:05;;;;;;;16.70;10.43;;;;;;;4.69;100.00;95402.97;5051626;28;20935;-33
2021/12/07 09:08:33;;;;;;;14.70;8.13;;;;;;;4.70;100.00;95404.53;5051329;28;20939;-32
2021/12/07 09:11:00;;;;;;;22.00;10.23;;;;;;;4.68;100.00;95397.94;5051848;28;20951;-32
2021/12/07 09:13:28;;;;;;;6.10;3.80;;;;;;;4.66;100.00;95390.25;5051554;28;20445;-32
2021/12/07 09:15:57;;;;;;;13.60;9.53;;;;;;;4.65;100.00;95404.47;5051567;28;20919;-33
2021/12/07 09:18:26;;;;;;;16.70;6.20;;;;;;;4.68;99.32;95421.59;5051442;28;20441;-32
2021/12/07 09:20:53;;;;;;;11.77;7.37;;;;;;;4.65;99.49;95401.03;5051378;28;20449;-33
2021/12/07 09:23:22;;;;;;;17.30;7.73;;;;;;;4.50;98.78;95394.44;5051736;28;20851;-33
2021/12/07 09:25:50;;;;;;;18.10;8.80;;;;;;;4.44;99.39;95399.81;5051626;28;20440;-33
2021/12/07 09:28:17;;;;;;;3.00;2.70;;;;;;;4.39;99.37;95397.88;5051469;28;20783;-33
2021/12/07 09:30:50;;;;;;;3.07;2.77;;;;;;;4.36;99.54;95411.47;5051507;28;20692;-33
2021/12/07 09:33:18;;;;;;;7.93;4.30;;;;;;;4.32;99.54;95391.94;5051056;28;20927;-34
2021/12/07 09:35:45;;;;;;;8.20;4.90;;;;;;;4.35;99.26;95370.47;5051624;28;20453;-33
2021/12/07 09:38:13;;;;;;;8.40;4.87;;;;;;;4.37;99.32;95373.66;5051244;28;20935;-33
2021/12/07 09:40:42;;;;;;;7.57;3.90;;;;;;;4.39;98.80;95370.78;5051034;28;20928;-32
2021/12/07 09:43:11;;;;;;;23.33;11.87;;;;;;;4.40;99.16;95362.69;5051517;28;20472;-33
2021/12/07 09:45:40;;;;;;;44.60;27.60;;;;;;;4.40;99.63;95364.50;5051080;28;20544;-32
2021/12/07 09:48:09;;;;;;;23.23;11.37;;;;;;;4.28;99.87;95356.63;5050780;28;20452;-33
2021/12/07 09:50:39;;;;;;;21.37;9.87;;;;;;;4.29;99.53;95366.94;5050943;28;20495;-33
2021/12/07 09:53:09;;;;;;;6.20;4.37;;;;;;;4.25;99.79;95370.25;5051138;28;20448;-33
2021/12/07 09:55:38;;;;;;;19.20;11.40;;;;;;;4.29;99.51;95368.75;5051164;28;20475;-32
2021/12/07 09:58:07;;;;;;;12.27;6.50;;;;;;;4.26;99.38;95377.91;5050792;28;20496;-33
2021/12/07 10:00:37;;;;;;;3.90;2.53;;;;;;;4.25;99.08;95371.03;5050637;28;20447;-33
2021/12/07 10:03:04;;;;;;;1.67;1.57;;;;;;;4.27;99.59;95365.56;5051097;28;20506;-33
2021/12/07 10:05:34;;;;;;;7.17;4.23;;;;;;;4.24;99.51;95352.91;5050781;28;20441;-32
2021/12/07 10:08:04;;;;;;;32.80;14.73;;;;;;;4.01;99.38;95335.34;5050335;28;20540;-33
2021/12/07 10:10:33;;;;;;;7.80;6.83;;;;;;;4.20;99.81;95363.06;5050569;28;20449;-32
2021/12/07 10:13:02;;;;;;;3.50;2.23;;;;;;;4.25;99.38;95354.47;5050393;28;20459;-33
2021/12/07 10:15:32;;;;;;;2.10;1.53;;;;;;;4.29;99.28;95355.63;5051041;28;20867;-33
2021/12/07 10:18:01;;;;;;;2.03;1.73;;;;;;;4.30;99.23;95351.94;5050584;28;20496;-33
2021/12/07 10:20:37;;;;;;;3.13;1.60;;;;;;;4.23;99.10;95356.53;5050911;28;20448;-32
2021/12/07 10:23:22;;;;;;;2.77;1.33;;;;;;;4.23;98.92;95362.59;5050677;28;20433;-33
2021/12/07 10:25:54;;;;;;;1.27;1.17;;;;;;;4.22;99.03;95368.09;5050523;28;20421;-33
2021/12/07 10:28:30;;;;;;;2.33;1.43;;;;;;;4.24;99.78;95358.16;5050449;28;20493;-33
2021/12/07 10:31:03;;;;;;;1.47;1.37;;;;;;;4.26;100.00;95350.84;5050589;28;20433;-33
2021/12/07 10:33:33;;;;;;;2.23;2.00;;;;;;;4.30;100.00;95358.03;5050262;28;20916;-33
2021/12/07 10:36:18;;;;;;;1.40;1.27;;;;;;;4.28;99.49;95354.00;5050445;28;20936;-33
2021/12/07 10:38:50;;;;;;;1.77;1.67;;;;;;;4.28;99.48;95343.50;5049873;28;20445;-32
2021/12/07 10:41:22;;;;;;;1.93;1.70;;;;;;;4.33;99.04;95335.75;5050280;28;20482;-31
2021/12/07 10:43:53;;;;;;;4.23;3.50;;;;;;;4.30;98.84;95338.81;5050197;28;20905;-33
2021/12/07 10:46:33;;;;;;;4.77;1.87;;;;;;;4.27;97.50;95336.66;5050502;28;20479;-33
2021/12/07 10:49:24;;;;;;;3.67;3.30;;;;;;;4.26;97.69;95340.34;5050193;28;20795;-33
2021/12/07 10:52:05;;;;;;;2.40;2.10;;;;;;;4.19;97.31;95334.38;5049519;28;20473;-31
2021/12/07 10:54:35;;;;;;;1.40;1.30;;;;;;;4.07;94.80;95332.59;5050082;28;20437;-31
2021/12/07 10:57:04;;;;;;;19.30;10.60;;;;;;;4.19;95.88;95347.53;5050162;28;20500;-32
2021/12/07 10:59:33;;;;;;;81.30;31.20;;;;;;;4.21;96.28;95346.25;5049949;28;20459;-31
2021/12/07 11:02:12;;;;;;;8.70;5.80;;;;;;;4.27;96.63;95347.16;5049807;28;20441;-32
2021/12/07 11:04:40;;;;;;;11.27;6.97;;;;;;;4.30;95.54;95344.06;5049468;28;20429;-32
2021/12/07 11:07:17;;;;;;;12.80;7.97;;;;;;;4.36;94.68;95343.16;5049959;28;20451;-33
2021/12/07 11:09:58;;;;;;;20.37;11.60;;;;;;;4.29;94.97;95318.84;5049900;28;20489;-32
2021/12/07 11:12:29;;;;;;;19.33;10.37;;;;;;;4.39;94.64;95336.63;5050181;28;20528;-32
2021/12/07 11:14:59;;;;;;;15.60;10.10;;;;;;;4.42;95.49;95323.03;5051785;28;20437;-32
2021/12/07 11:17:31;;;;;;;18.67;10.37;;;;;;;4.42;95.44;95317.78;5051938;28;21054;-32
2021/12/07 11:19:59;;;;;;;9.83;5.43;;;;;;;4.31;94.74;95316.78;5051515;28;20425;-32
2021/12/07 11:22:30;;;;;;;26.47;16.03;;;;;;;4.33;95.08;95322.59;5051398;28;20805;-32
2021/12/07 11:25:01;;;;;;;19.63;9.07;;;;;;;4.33;95.10;95324.44;5051667;28;20433;-33
2021/12/07 11:30:15;;;;;;;30.00;20.70;;;;;;;4.31;95.75;95301.00;5049610;28;20421;-33
2021/12/07 11:32:48;;;;;;;31.90;17.47;;;;;;;4.33;96.16;95304.22;5049858;28;20467;-33
2021/12/07 11:35:23;;;;;;;19.57;10.43;;;;;;;4.37;95.82;95310.59;5049660;28;20457;-32
2021/12/07 11:37:51;;;;;;;10.13;7.90;;;;;;;4.37;94.79;95301.91;5049596;28;20478;-32
2021/12/07 11:40:25;;;;;;;22.00;10.90;;;;;;;4.35;94.83;95296.88;5051009;28;20480;-32
2021/12/07 11:42:52;;;;;;;14.07;8.00;;;;;;;4.18;95.41;95275.00;5051558;28;20793;-32
2021/12/07 11:45:25;;;;;;;7.00;4.43;;;;;;;4.36;95.94;95308.97;5051233;28;20803;-32
2021/12/07 11:47:57;;;;;;;4.03;3.03;;;;;;;4.34;93.74;95305.00;5051671;28;20434;-32
2021/12/07 11:50:30;;;;;;;14.90;6.13;;;;;;;4.25;94.20;95304.56;5051251;28;20834;-32
2021/12/07 11:53:00;;;;;;;20.70;9.47;;;;;;;4.18;94.97;95315.22;5051153;28;20436;-32
2021/12/07 11:55:28;;;;;;;20.27;9.50;;;;;;;4.14;94.42;95313.28;5051122;28;20445;-32
2021/12/07 11:57:57;;;;;;;9.50;5.77;;;;;;;4.11;94.73;95322.44;5052069;28;20488;-32
2021/12/07 12:00:28;;;;;;;52.63;22.40;;;;;;;4.07;95.40;95302.91;5051339;28;20495;-32
2021/12/07 12:02:57;;;;;;;17.23;7.97;;;;;;;4.06;96.06;95312.59;5051015;28;20430;-32
2021/12/07 12:05:24;;;;;;;20.33;6.87;;;;;;;4.10;95.88;95323.44;5051221;28;20452;-31
2021/12/07 12:07:52;;;;;;;14.30;8.37;;;;;;;4.05;95.64;95318.09;5051107;28;20457;-32
2021/12/07 12:10:21;;;;;;;16.30;7.00;;;;;;;3.81;95.81;95285.81;5050806;28;20448;-32
2021/12/07 12:13:05;;;;;;;33.83;14.37;;;;;;;4.04;96.32;95305.97;5050892;28;20445;-32
2021/12/07 12:15:53;;;;;;;27.93;12.60;;;;;;;4.04;96.44;95305.97;5050914;28;20436;-32
2021/12/07 12:18:36;;;;;;;14.03;6.33;;;;;;;4.13;97.22;95304.59;5050672;28;20562;-32
2021/12/07 12:21:16;;;;;;;42.10;17.83;;;;;;;4.16;96.86;95298.88;5050865;28;20795;-32
2021/12/07 12:23:53;;;;;;;78.40;24.57;;;;;;;4.16;96.60;95311.22;5051008;28;20564;-32
2021/12/07 12:26:26;;;;;;;31.07;10.90;;;;;;;3.93;96.28;95283.94;5050662;28;20440;-32
2021/12/07 12:28:55;;;;;;;50.37;17.87;;;;;;;4.13;96.33;95317.75;5050907;28;20451;-32
2021/12/07 12:31:43;;;;;;;47.17;17.00;;;;;;;4.14;96.78;95329.03;5050257;28;20810;-32
2021/12/07 12:34:18;;;;;;;27.30;10.23;;;;;;;4.18;96.71;95323.09;5051699;28;20453;-32
2021/12/07 12:37:07;;;;;;;28.60;9.90;;;;;;;4.21;96.76;95327.88;5050754;28;20444;-32
2021/12/07 12:39:55;;;;;;;22.57;11.63;;;;;;;4.25;96.87;95338.72;5050771;28;20426;-32
2021/12/07 12:42:30;;;;;;;30.87;10.93;;;;;;;4.19;96.16;95331.75;5050341;28;20441;-32
2021/12/07 12:45:01;;;;;;;11.60;5.67;;;;;;;4.02;95.82;95311.47;5050424;28;20761;-31
2021/12/07 12:47:31;;;;;;;16.80;7.17;;;;;;;4.18;96.15;95338.06;5050361;28;20433;-32
2021/12/07 12:50:11;;;;;;;12.90;7.77;;;;;;;4.20;96.60;95326.28;5050255;28;20451;-32
2021/12/07 12:52:43;;;;;;;13.00;7.50;;;;;;;4.20;97.06;95325.50;5050510;28;20429;-32
2021/12/07 12:55:42;;;;;;;7.40;4.30;;;;;;;4.19;97.01;95344.91;5050627;28;20429;-32
2021/12/07 12:58:13;;;;;;;37.03;17.57;;;;;;;4.14;96.83;95339.53;5091517;28;20482;-31
2021/12/07 13:01:13;;;;;;;8.67;6.57;;;;;;;4.19;97.02;95344.91;5091436;28;20477;-33
2021/12/07 13:04:01;;;;;;;6.43;5.30;;;;;;;4.21;96.17;95351.50;5091383;28;20424;-32
2021/12/07 13:06:53;;;;;;;10.67;7.40;;;;;;;4.19;96.35;95344.91;5091287;28;20454;-34